Mimbres, New Mexico
Current Conditions -  °F | °C
As of 3:15 PM on Saturday 25 Oct 2014 (Local Time) from KSVC Reporting Station
Clear Clear  
Wind Chill: 79°   Ceiling: Unl
Heat Index: 79°   Visibility: 10mi
Dew Point: 39°   Wind: 10mph
Humidity: 24%   Direction: 330°NNW
Pressure: 30.26"   Gusts: 20mph
Location:  32.86°N, 107.98°W
Report Text: KSVC 252115Z AUTO 33009G17KT 10SM CLR 26/04 A3026 RMK AO2
Loading
Personal Weather Stations






























Interactive Weather Map
Tropical Storm Tracking
New forecast layout! Learn more

10-Day Weather Forecast

Advertisements
Track Severe Weather on mobile